Time;durP1;ratioP1;P1;durP2;ratioP2;P2;SDS_P1;SDS_P2;PMS_P1;PMS_P2;Temp;Humidity;BMP_temperature;BMP_pressure;BME280_temperature;BME280_humidity;BME280_pressure;Samples;Min_cycle;Max_cycle;Signal;HPM_P1;HPM_P2
2021/07/21 00:00:15;;;;;;;8.47;6.83;;;16.40;99.90;;;;;;5088394;28;20960;-72
2021/07/21 00:02:42;;;;;;;9.10;7.53;;;16.30;99.90;;;;;;5088004;28;20473;-72
2021/07/21 00:05:11;;;;;;;8.83;7.07;;;16.30;99.90;;;;;;5088667;28;20852;-72
2021/07/21 00:07:38;;;;;;;12.70;7.30;;;16.30;99.90;;;;;;5088007;28;20458;-72
2021/07/21 00:15:21;;;;;;;9.50;6.40;;;16.20;99.90;;;;;;5048538;28;20496;-71
2021/07/21 00:17:58;;;;;;;8.33;6.47;;;16.10;99.90;;;;;;5049676;28;20462;-71
2021/07/21 00:20:25;;;;;;;8.80;6.97;;;16.10;99.90;;;;;;5048567;28;20471;-71
2021/07/21 00:22:52;;;;;;;9.50;6.60;;;16.10;99.90;;;;;;5049362;28;20464;-71
2021/07/21 00:25:18;;;;;;;8.83;6.80;;;16.10;99.90;;;;;;5048905;28;20479;-71
2021/07/21 00:27:47;;;;;;;7.03;6.27;;;16.00;99.90;;;;;;5049272;28;20601;-71
2021/07/21 00:30:17;;;;;;;14.07;7.00;;;16.00;99.90;;;;;;5048481;28;20835;-71
2021/07/21 00:32:44;;;;;;;8.20;6.80;;;16.00;99.90;;;;;;5057693;28;20459;-71
2021/07/21 00:35:13;;;;;;;10.20;6.57;;;16.00;99.90;;;;;;5061801;28;20517;-71
2021/07/21 00:37:40;;;;;;;7.93;6.63;;;15.90;99.90;;;;;;5049437;28;20459;-71
2021/07/21 00:40:09;;;;;;;8.73;6.70;;;15.90;99.90;;;;;;5048760;28;20958;-71
2021/07/21 00:42:36;;;;;;;8.67;6.60;;;15.80;99.90;;;;;;5049122;28;20455;-71
2021/07/21 00:45:05;;;;;;;8.03;6.17;;;15.70;99.90;;;;;;5049229;28;20475;-71
2021/07/21 00:47:32;;;;;;;8.17;6.97;;;15.70;99.90;;;;;;5048973;28;21060;-71
2021/07/21 00:49:59;;;;;;;7.30;6.37;;;15.70;99.90;;;;;;5048272;28;20459;-71
2021/07/21 00:52:26;;;;;;;7.70;6.77;;;15.60;99.90;;;;;;5048499;28;21084;-71
2021/07/21 00:54:53;;;;;;;7.67;6.40;;;15.60;99.90;;;;;;5048875;28;20487;-71
2021/07/21 00:57:19;;;;;;;8.03;6.57;;;15.50;99.90;;;;;;5048689;28;20837;-71
2021/07/21 00:59:50;;;;;;;7.70;6.90;;;15.40;99.90;;;;;;5048284;28;20471;-71
2021/07/21 01:02:18;;;;;;;8.13;6.20;;;15.40;99.90;;;;;;5048607;28;20463;-71
2021/07/21 01:04:45;;;;;;;8.97;6.90;;;15.40;99.90;;;;;;5048432;28;20848;-71
2021/07/21 01:07:12;;;;;;;8.73;6.77;;;15.40;99.90;;;;;;5048668;28;20967;-71
2021/07/21 01:09:43;;;;;;;8.20;5.97;;;15.40;99.90;;;;;;5047954;28;20478;-73
2021/07/21 01:12:17;;;;;;;9.40;7.13;;;15.40;99.90;;;;;;5064936;28;20481;-71
2021/07/21 01:14:52;;;;;;;7.50;6.67;;;15.30;99.90;;;;;;5068979;28;20492;-71
2021/07/21 01:17:26;;;;;;;8.23;6.40;;;15.30;99.90;;;;;;5069115;28;20458;-71
2021/07/21 01:20:19;;;;;;;9.60;7.37;;;15.30;99.90;;;;;;5068387;28;20466;-71
2021/07/21 01:22:52;;;;;;;7.73;6.07;;;15.30;99.90;;;;;;5068897;28;20470;-73
2021/07/21 01:25:24;;;;;;;8.60;7.50;;;15.20;99.90;;;;;;5069218;28;20993;-73
2021/07/21 01:27:53;;;;;;;9.40;6.80;;;15.20;99.90;;;;;;5073002;28;20458;-72
2021/07/21 01:30:25;;;;;;;10.13;6.30;;;15.10;99.90;;;;;;5072604;28;20465;-72
2021/07/21 01:32:56;;;;;;;9.83;6.70;;;15.10;99.90;;;;;;5072706;28;20462;-72
2021/07/21 01:35:25;;;;;;;6.93;6.23;;;15.00;99.90;;;;;;5073156;28;20490;-72
2021/07/21 01:37:57;;;;;;;7.90;6.57;;;15.00;99.90;;;;;;5072981;28;20454;-72
2021/07/21 01:40:27;;;;;;;8.57;6.97;;;15.00;99.90;;;;;;5072301;28;20465;-72
2021/07/21 01:42:59;;;;;;;9.87;7.43;;;14.90;99.90;;;;;;5072717;28;20454;-72
2021/07/21 01:45:28;;;;;;;8.33;6.73;;;14.90;99.90;;;;;;5072724;28;20482;-73
2021/07/21 01:47:58;;;;;;;8.37;6.70;;;14.90;99.90;;;;;;5072568;28;20454;-73
2021/07/21 01:50:26;;;;;;;10.13;6.90;;;14.90;99.90;;;;;;5072104;28;20461;-73
2021/07/21 01:52:54;;;;;;;7.37;6.43;;;14.90;99.90;;;;;;5072281;28;20961;-73
2021/07/21 01:55:23;;;;;;;7.73;6.93;;;14.80;99.90;;;;;;5071951;28;20490;-72
2021/07/21 01:57:51;;;;;;;7.33;6.33;;;14.80;99.90;;;;;;5072256;28;20857;-72
2021/07/21 02:00:20;;;;;;;11.10;7.77;;;14.80;99.90;;;;;;5071253;28;20631;-73
2021/07/21 02:02:50;;;;;;;10.90;6.87;;;14.80;99.90;;;;;;5071512;28;20465;-73
2021/07/21 02:05:17;;;;;;;8.10;6.90;;;14.70;99.90;;;;;;5071746;28;20478;-73
2021/07/21 02:07:46;;;;;;;7.20;6.43;;;14.60;99.90;;;;;;5072053;28;20458;-73
2021/07/21 02:10:17;;;;;;;7.40;6.57;;;14.70;99.90;;;;;;5071246;28;20565;-73
2021/07/21 02:12:45;;;;;;;9.53;7.20;;;14.60;99.90;;;;;;5071535;28;20458;-73
2021/07/21 02:15:12;;;;;;;8.33;6.27;;;14.60;99.90;;;;;;5071389;28;20498;-73
2021/07/21 02:17:41;;;;;;;7.60;6.80;;;14.60;99.90;;;;;;5071489;28;20645;-73
2021/07/21 02:20:09;;;;;;;8.90;7.80;;;14.60;99.90;;;;;;5071061;28;20462;-73
2021/07/21 02:22:37;;;;;;;7.93;6.43;;;14.60;99.90;;;;;;5071811;28;20958;-73
2021/07/21 02:25:05;;;;;;;8.20;6.77;;;14.50;99.90;;;;;;5070939;28;20483;-73
2021/07/21 02:27:31;;;;;;;7.23;6.40;;;14.60;99.90;;;;;;5071648;28;20869;-73
2021/07/21 02:29:58;;;;;;;9.37;6.63;;;14.50;99.90;;;;;;5070570;28;20954;-73
2021/07/21 02:32:30;;;;;;;9.57;7.10;;;14.50;99.90;;;;;;5071320;28;20454;-73
2021/07/21 02:34:58;;;;;;;9.17;6.47;;;14.60;99.90;;;;;;5070917;28;20478;-73
2021/07/21 02:37:25;;;;;;;9.00;6.50;;;14.60;99.90;;;;;;5070674;28;20458;-73
2021/07/21 02:39:53;;;;;;;8.00;6.60;;;14.50;99.90;;;;;;5070441;28;20462;-72
2021/07/21 02:42:21;;;;;;;8.40;6.73;;;14.50;99.90;;;;;;5071097;28;20846;-72
2021/07/21 02:44:49;;;;;;;7.40;6.40;;;14.50;99.90;;;;;;5071003;28;20513;-73
2021/07/21 02:47:17;;;;;;;8.30;6.90;;;14.40;99.90;;;;;;5070975;28;20454;-72
2021/07/21 02:49:46;;;;;;;8.60;6.50;;;14.40;99.90;;;;;;5070842;28;20469;-72
2021/07/21 02:52:19;;;;;;;7.57;6.80;;;14.40;99.90;;;;;;5070653;28;20458;-72
2021/07/21 02:54:53;;;;;;;8.87;6.70;;;14.40;99.90;;;;;;5070873;28;20554;-72
2021/07/21 02:57:25;;;;;;;10.73;7.07;;;14.40;99.90;;;;;;5070780;28;20458;-72
2021/07/21 02:59:54;;;;;;;7.43;6.67;;;14.40;99.90;;;;;;5070172;28;20646;-72
2021/07/21 03:02:26;;;;;;;10.27;6.87;;;14.40;99.90;;;;;;5070769;28;20459;-72
2021/07/21 03:04:57;;;;;;;10.10;7.57;;;14.30;99.90;;;;;;5070617;28;20474;-72
2021/07/21 03:07:25;;;;;;;9.63;7.40;;;14.40;99.90;;;;;;5070936;28;20929;-72
2021/07/21 03:09:53;;;;;;;8.43;6.47;;;14.30;99.90;;;;;;5069639;28;20458;-72
2021/07/21 03:12:22;;;;;;;8.83;6.87;;;14.30;99.90;;;;;;5070613;28;20470;-72
2021/07/21 03:14:52;;;;;;;7.80;6.93;;;14.30;99.90;;;;;;5070158;28;20503;-72
2021/07/21 03:17:20;;;;;;;10.23;7.87;;;14.30;99.90;;;;;;5070639;28;20459;-72
2021/07/21 03:19:50;;;;;;;8.53;6.57;;;14.30;99.90;;;;;;5069854;28;20463;-72
2021/07/21 03:22:20;;;;;;;7.53;6.50;;;14.30;99.90;;;;;;5070343;28;20462;-72
2021/07/21 03:24:49;;;;;;;8.20;6.80;;;14.20;99.90;;;;;;5070440;28;20486;-72
2021/07/21 03:27:16;;;;;;;8.70;6.57;;;14.20;99.90;;;;;;5070213;28;20466;-72
2021/07/21 03:29:49;;;;;;;8.57;6.50;;;14.20;99.90;;;;;;5069754;28;20473;-72
2021/07/21 03:32:19;;;;;;;9.30;6.27;;;14.20;99.90;;;;;;5069962;28;20473;-72
2021/07/21 03:34:48;;;;;;;9.30;7.07;;;14.20;99.90;;;;;;5070032;28;20486;-72
2021/07/21 03:37:16;;;;;;;6.70;6.00;;;14.20;99.90;;;;;;5069911;28;20463;-72
2021/07/21 03:39:43;;;;;;;8.90;6.50;;;14.10;99.90;;;;;;5069385;28;20446;-74
2021/07/21 03:42:15;;;;;;;7.90;6.67;;;14.10;99.90;;;;;;5069703;28;20466;-73
2021/07/21 03:44:43;;;;;;;8.17;7.23;;;14.10;99.90;;;;;;5070026;28;21017;-72
2021/07/21 03:47:10;;;;;;;9.27;7.30;;;14.10;99.90;;;;;;5069886;28;20462;-72
2021/07/21 03:49:37;;;;;;;8.60;6.67;;;14.00;99.90;;;;;;5069345;28;20462;-73
2021/07/21 03:52:08;;;;;;;9.03;6.90;;;14.00;99.90;;;;;;5069829;28;20466;-73
2021/07/21 03:54:36;;;;;;;9.88;7.30;;;14.00;99.90;;;;;;5069312;28;20458;-72
2021/07/21 03:57:04;;;;;;;11.47;7.93;;;14.00;99.90;;;;;;5077920;28;20212;-72
2021/07/21 03:59:32;;;;;;;7.93;6.50;;;14.00;99.90;;;;;;5075254;28;20466;-73
2021/07/21 04:02:01;;;;;;;8.53;7.10;;;14.00;99.90;;;;;;5076680;28;20564;-72
2021/07/21 04:04:28;;;;;;;7.57;6.77;;;14.00;99.90;;;;;;5076743;28;20994;-72
2021/07/21 04:06:57;;;;;;;8.67;7.47;;;14.00;99.90;;;;;;5089413;28;20480;-72
2021/07/21 04:09:26;;;;;;;9.37;7.17;;;14.00;99.90;;;;;;5078134;28;20461;-72
2021/07/21 04:11:56;;;;;;;9.70;6.90;;;13.90;99.90;;;;;;5069249;28;20842;-72
2021/07/21 04:14:23;;;;;;;8.03;6.93;;;13.90;99.90;;;;;;5068215;28;20540;-72
2021/07/21 04:16:53;;;;;;;9.27;7.20;;;13.90;99.90;;;;;;5068742;28;20490;-71
2021/07/21 04:19:21;;;;;;;8.10;7.00;;;13.90;99.90;;;;;;5068398;28;20465;-71
2021/07/21 04:21:50;;;;;;;10.70;7.57;;;13.90;99.90;;;;;;5068957;28;20465;-71
2021/07/21 04:24:19;;;;;;;8.77;7.03;;;13.90;99.90;;;;;;5068625;28;20479;-71
2021/07/21 04:26:47;;;;;;;8.57;6.53;;;13.90;99.90;;;;;;5088044;28;21267;-71
2021/07/21 04:29:15;;;;;;;10.50;7.03;;;13.90;99.90;;;;;;5086164;28;20472;-71
2021/07/21 04:31:44;;;;;;;10.70;7.10;;;13.90;99.90;;;;;;5086747;28;20481;-71
2021/07/21 04:34:14;;;;;;;8.63;7.33;;;14.00;99.90;;;;;;5087392;28;21035;-71
2021/07/21 04:36:42;;;;;;;10.10;7.87;;;14.00;99.90;;;;;;5088935;28;21044;-71
2021/07/21 04:39:12;;;;;;;10.70;7.60;;;14.10;99.90;;;;;;5088094;28;20468;-71
2021/07/21 04:41:39;;;;;;;9.00;7.40;;;14.10;99.90;;;;;;5088908;28;20835;-71
2021/07/21 04:44:06;;;;;;;9.53;7.40;;;14.10;99.90;;;;;;5088613;28;20485;-71
2021/07/21 04:46:34;;;;;;;7.30;6.50;;;14.10;99.90;;;;;;5088922;28;20457;-71
2021/07/21 04:49:02;;;;;;;8.90;7.13;;;14.20;99.90;;;;;;5088209;28;20460;-71
2021/07/21 04:51:32;;;;;;;10.47;7.70;;;14.20;99.90;;;;;;5088638;28;20458;-71
2021/07/21 04:54:03;;;;;;;11.03;7.20;;;14.20;99.90;;;;;;5088097;28;20481;-71
2021/07/21 04:56:29;;;;;;;10.00;7.07;;;14.20;99.90;;;;;;5088544;28;20486;-71
2021/07/21 04:58:56;;;;;;;9.13;7.20;;;14.30;99.90;;;;;;5088094;28;20461;-71
2021/07/21 05:01:23;;;;;;;9.40;7.30;;;14.20;99.90;;;;;;5076484;28;20470;-71
2021/07/21 05:03:53;;;;;;;8.30;7.17;;;14.30;99.90;;;;;;5068248;28;20465;-71
2021/07/21 05:06:20;;;;;;;8.40;7.50;;;14.30;99.90;;;;;;5068302;28;20466;-71
2021/07/21 05:08:48;;;;;;;9.90;7.37;;;14.30;99.90;;;;;;5068379;28;20996;-71
2021/07/21 05:11:15;;;;;;;10.63;8.40;;;14.40;99.90;;;;;;5067566;28;20949;-71
2021/07/21 05:13:42;;;;;;;12.43;8.03;;;14.40;99.90;;;;;;5068278;28;20839;-71
2021/07/21 05:16:09;;;;;;;9.23;7.60;;;14.50;99.90;;;;;;5067739;28;20881;-71
2021/07/21 05:18:36;;;;;;;10.30;7.20;;;14.50;99.90;;;;;;5068600;28;20474;-71
2021/07/21 05:21:03;;;;;;;10.70;8.10;;;14.50;99.90;;;;;;5067535;28;20949;-71
2021/07/21 05:23:30;;;;;;;9.43;7.50;;;14.60;99.90;;;;;;5067988;28;20459;-71
2021/07/21 05:25:59;;;;;;;13.07;8.17;;;14.70;99.90;;;;;;5067939;28;20475;-71
2021/07/21 05:28:26;;;;;;;9.07;7.90;;;14.80;99.90;;;;;;5067945;28;20458;-71
2021/07/21 05:30:54;;;;;;;11.23;8.67;;;14.90;99.90;;;;;;5073403;28;20466;-71
2021/07/21 05:33:21;;;;;;;13.43;7.87;;;15.00;99.90;;;;;;5082110;28;20453;-71
2021/07/21 05:35:49;;;;;;;11.43;8.30;;;15.10;99.90;;;;;;5088303;28;20485;-71
2021/07/21 05:38:16;;;;;;;8.03;7.20;;;15.10;99.90;;;;;;5088270;28;20461;-71
2021/07/21 05:40:43;;;;;;;10.77;8.23;;;15.20;99.90;;;;;;5087571;28;20461;-71
2021/07/21 05:43:11;;;;;;;13.50;8.40;;;15.30;99.90;;;;;;5087993;28;20472;-71
2021/07/21 05:45:37;;;;;;;10.83;7.77;;;15.30;99.90;;;;;;5088367;28;20481;-71
2021/07/21 05:48:05;;;;;;;11.40;8.60;;;15.40;99.90;;;;;;5088647;28;20462;-71
2021/07/21 05:50:32;;;;;;;13.00;8.60;;;15.40;99.90;;;;;;5088172;28;20468;-71
2021/07/21 05:52:59;;;;;;;10.50;7.80;;;15.50;99.90;;;;;;5088423;28;20949;-71
2021/07/21 05:55:25;;;;;;;10.10;7.70;;;15.50;99.90;;;;;;5088706;28;20847;-71
2021/07/21 05:57:52;;;;;;;12.37;8.13;;;15.60;99.90;;;;;;5088062;28;20473;-71
2021/07/21 06:00:20;;;;;;;10.70;8.00;;;15.60;99.90;;;;;;5088001;28;20461;-71
2021/07/21 06:02:47;;;;;;;12.50;9.17;;;15.70;99.90;;;;;;5088391;28;20465;-71
2021/07/21 06:05:14;;;;;;;9.77;7.53;;;15.70;99.90;;;;;;5088447;28;20482;-71
2021/07/21 06:07:41;;;;;;;11.50;7.90;;;15.70;99.90;;;;;;5088442;28;20461;-71
2021/07/21 06:10:08;;;;;;;11.53;8.57;;;15.70;99.90;;;;;;5087553;28;20461;-71
2021/07/21 06:12:37;;;;;;;12.10;8.80;;;15.80;99.90;;;;;;5075196;22;20497;-94
2021/07/21 06:15:07;;;;;;;11.77;8.40;;;15.80;99.90;;;;;;5019410;28;20819;-93
2021/07/21 06:17:35;;;;;;;10.37;7.93;;;15.90;99.90;;;;;;5019151;28;20469;-93
2021/07/21 06:20:04;;;;;;;9.83;8.70;;;15.90;99.90;;;;;;5019071;28;20469;-93
2021/07/21 06:22:38;;;;;;;12.77;7.90;;;16.00;99.90;;;;;;5020203;28;20481;-93
2021/07/21 06:25:08;;;;;;;11.60;8.40;;;16.00;99.90;;;;;;5027451;28;20481;-93
2021/07/21 06:27:37;;;;;;;10.67;8.37;;;16.10;99.90;;;;;;5027130;28;20459;-93
2021/07/21 06:30:07;;;;;;;11.67;8.60;;;16.10;99.90;;;;;;5024834;28;20465;-93
2021/07/21 06:32:37;;;;;;;9.70;8.23;;;16.20;99.90;;;;;;5022659;28;20482;-93
2021/07/21 06:35:05;;;;;;;11.97;8.90;;;16.20;99.90;;;;;;5019156;28;20461;-93
2021/07/21 06:37:32;;;;;;;10.43;8.40;;;16.30;99.90;;;;;;5018716;28;20474;-92
2021/07/21 06:39:59;;;;;;;11.17;8.20;;;16.30;99.90;;;;;;5018088;28;20476;-92
2021/07/21 06:42:26;;;;;;;12.00;8.73;;;16.40;99.90;;;;;;5018837;28;20564;-92
2021/07/21 06:51:55;;;;;;;10.33;8.70;;;16.60;99.90;;;;;;5018986;22;20494;-74
2021/07/21 06:54:22;;;;;;;14.37;8.80;;;16.70;99.90;;;;;;5050235;28;20897;-73
2021/07/21 06:56:49;;;;;;;13.10;8.80;;;16.80;99.90;;;;;;4988835;28;20489;-74
2021/07/21 06:59:15;;;;;;;10.60;8.70;;;16.80;99.90;;;;;;4987885;28;20469;-74
2021/07/21 07:01:42;;;;;;;13.13;8.80;;;16.90;99.90;;;;;;4989129;28;20470;-74
2021/07/21 07:04:09;;;;;;;11.53;8.80;;;17.00;99.90;;;;;;4988439;28;21020;-74
2021/07/21 07:06:37;;;;;;;10.47;8.90;;;17.10;99.90;;;;;;4988757;28;20861;-73
2021/07/21 07:09:05;;;;;;;11.70;8.10;;;17.20;99.90;;;;;;4988444;28;21011;-74
2021/07/21 07:11:33;;;;;;;11.67;9.00;;;17.20;99.90;;;;;;4988442;28;20469;-74
2021/07/21 07:13:59;;;;;;;14.27;8.53;;;17.30;99.90;;;;;;4988239;28;20490;-74
2021/07/21 07:16:26;;;;;;;11.13;8.47;;;17.40;99.90;;;;;;4988539;28;20497;-73
2021/07/21 07:18:53;;;;;;;10.73;7.97;;;17.40;99.90;;;;;;5017707;28;20459;-74
2021/07/21 07:21:20;;;;;;;11.53;8.57;;;17.50;99.90;;;;;;5069962;28;20462;-73
2021/07/21 07:23:50;;;;;;;11.00;8.53;;;17.60;99.90;;;;;;4974200;28;20528;-74
2021/07/21 07:26:18;;;;;;;13.00;8.10;;;17.70;99.90;;;;;;4966346;28;20548;-74
2021/07/21 07:28:44;;;;;;;11.83;9.03;;;17.70;99.90;;;;;;4966755;28;20500;-73
2021/07/21 07:31:11;;;;;;;12.13;8.83;;;17.80;99.90;;;;;;4965891;28;20470;-74
2021/07/21 07:33:38;;;;;;;10.60;8.77;;;17.80;99.90;;;;;;4966729;28;20868;-74
2021/07/21 07:36:07;;;;;;;9.33;8.30;;;17.90;99.90;;;;;;4966754;28;20574;-73
2021/07/21 07:38:34;;;;;;;11.10;7.60;;;17.90;99.90;;;;;;4967341;28;20521;-73
2021/07/21 07:41:00;;;;;;;9.67;8.70;;;17.90;99.90;;;;;;4966080;28;20474;-72
2021/07/21 07:43:29;;;;;;;12.43;8.20;;;18.00;99.90;;;;;;4967325;28;20550;-71
2021/07/21 07:45:57;;;;;;;9.10;8.20;;;18.00;99.90;;;;;;4966378;28;20491;-71
2021/07/21 07:48:25;;;;;;;12.13;8.23;;;18.10;99.90;;;;;;4967616;28;20562;-70
2021/07/21 07:50:53;;;;;;;10.20;8.70;;;18.20;99.90;;;;;;4965840;28;20873;-74
2021/07/21 07:53:20;;;;;;;12.70;8.87;;;18.30;99.90;;;;;;4965028;28;21022;-72
2021/07/21 07:55:47;;;;;;;10.07;8.00;;;18.40;99.90;;;;;;4957350;28;20550;-73
2021/07/21 07:58:14;;;;;;;10.50;8.30;;;18.50;99.90;;;;;;4946344;28;20542;-71
2021/07/21 08:00:43;;;;;;;10.60;9.00;;;18.60;99.90;;;;;;4961448;28;20466;-70
2021/07/21 08:03:10;;;;;;;9.73;8.80;;;18.70;99.90;;;;;;4945958;28;20498;-71
2021/07/21 08:05:39;;;;;;;9.93;8.23;;;18.80;99.90;;;;;;4952897;28;20786;-71
2021/07/21 08:08:06;;;;;;;11.27;8.57;;;18.90;99.90;;;;;;4957803;28;20891;-73
2021/07/21 08:10:33;;;;;;;10.93;8.00;;;18.90;99.90;;;;;;4964708;28;20463;-71
2021/07/21 08:13:01;;;;;;;8.97;8.00;;;19.00;99.90;;;;;;4961017;28;20836;-73
2021/07/21 08:15:29;;;;;;;9.30;7.40;;;19.00;99.90;;;;;;4951129;28;20495;-72
2021/07/21 08:17:59;;;;;;;12.40;8.00;;;19.00;99.90;;;;;;4965881;28;20620;-73
2021/07/21 08:20:26;;;;;;;9.33;7.80;;;19.10;99.90;;;;;;4962391;28;21127;-73
2021/07/21 08:22:54;;;;;;;13.20;8.60;;;19.20;99.90;;;;;;4948288;28;20467;-74
2021/07/21 08:25:24;;;;;;;11.80;8.33;;;19.40;99.90;;;;;;4961274;28;21043;-72
2021/07/21 08:27:51;;;;;;;10.97;8.67;;;19.50;99.90;;;;;;4964748;28;20467;-74
2021/07/21 08:30:18;;;;;;;13.73;9.90;;;19.60;99.90;;;;;;4949736;28;20482;-72
2021/07/21 08:32:48;;;;;;;10.13;8.20;;;19.70;99.90;;;;;;4953378;28;21030;-72
2021/07/21 08:35:18;;;;;;;9.53;8.40;;;19.80;99.90;;;;;;4953975;28;20530;-73
2021/07/21 08:37:46;;;;;;;9.67;7.90;;;19.90;99.90;;;;;;4965859;28;20599;-73
2021/07/21 08:40:14;;;;;;;8.50;7.53;;;19.90;99.90;;;;;;4961139;28;20837;-73
2021/07/21 08:42:42;;;;;;;9.63;7.70;;;20.00;99.90;;;;;;4965094;28;21002;-74
2021/07/21 08:45:10;;;;;;;8.57;7.67;;;20.00;99.90;;;;;;4964282;28;20815;-73
2021/07/21 08:47:37;;;;;;;11.70;9.00;;;20.10;99.90;;;;;;4965229;28;20456;-74
2021/07/21 08:50:06;;;;;;;11.87;7.57;;;20.20;99.90;;;;;;4964639;28;20467;-73
2021/07/21 08:52:35;;;;;;;9.63;8.50;;;20.30;99.90;;;;;;4964377;28;20473;-73
2021/07/21 08:55:04;;;;;;;9.50;7.97;;;20.40;99.90;;;;;;4949598;28;21002;-73
2021/07/21 08:57:33;;;;;;;10.43;7.60;;;20.40;99.90;;;;;;4945542;28;20581;-73
2021/07/21 09:00:01;;;;;;;8.80;7.93;;;20.60;99.90;;;;;;4949431;28;20828;-71
2021/07/21 09:02:28;;;;;;;9.63;8.03;;;20.60;99.90;;;;;;4960026;28;20461;-73
2021/07/21 09:04:57;;;;;;;9.30;8.20;;;20.70;99.90;;;;;;4961850;28;20522;-73
2021/07/21 09:07:25;;;;;;;8.43;7.63;;;20.80;99.90;;;;;;4945596;28;20460;-73
2021/07/21 09:09:54;;;;;;;8.57;7.77;;;20.90;99.90;;;;;;4955897;28;20463;-72
2021/07/21 09:12:21;;;;;;;8.07;7.27;;;21.00;99.90;;;;;;4959773;28;20879;-73
2021/07/21 09:14:48;;;;;;;9.43;7.80;;;21.10;99.90;;;;;;4958885;28;20892;-72
2021/07/21 09:17:16;;;;;;;10.50;8.60;;;21.20;99.90;;;;;;4958881;28;20487;-73
2021/07/21 09:19:45;;;;;;;10.70;9.00;;;21.30;99.90;;;;;;4944946;28;20981;-73
2021/07/21 09:22:15;;;;;;;8.57;7.67;;;21.30;99.90;;;;;;4946231;28;20513;-73
2021/07/21 09:24:42;;;;;;;10.30;8.10;;;21.40;99.90;;;;;;4945621;28;20970;-72
2021/07/21 09:27:10;;;;;;;9.07;7.67;;;21.40;99.90;;;;;;4946580;28;20551;-73
2021/07/21 09:29:39;;;;;;;8.70;7.83;;;21.50;99.90;;;;;;4945077;28;20464;-72
2021/07/21 09:32:08;;;;;;;10.10;7.93;;;21.50;99.90;;;;;;4946568;28;20474;-73
2021/07/21 09:34:35;;;;;;;8.03;7.23;;;21.60;99.90;;;;;;4945440;28;20480;-72
2021/07/21 09:37:03;;;;;;;8.87;7.90;;;21.60;99.90;;;;;;4944165;28;20503;-73
2021/07/21 09:39:35;;;;;;;9.50;8.50;;;21.70;99.90;;;;;;4944242;28;20487;-73
2021/07/21 09:42:02;;;;;;;12.10;7.87;;;21.80;99.90;;;;;;4944617;28;20464;-73
2021/07/21 09:44:36;;;;;;;8.70;7.70;;;21.90;99.90;;;;;;4944841;28;20491;-73
2021/07/21 09:47:10;;;;;;;8.40;7.50;;;22.00;99.90;;;;;;4947407;28;20996;-73
2021/07/21 09:49:37;;;;;;;10.87;7.67;;;22.00;99.90;;;;;;4955615;28;21031;-74
2021/07/21 09:52:15;;;;;;;10.33;8.53;;;22.00;99.90;;;;;;4968207;28;20478;-71
2021/07/21 09:54:42;;;;;;;9.63;7.70;;;22.00;99.90;;;;;;4967792;28;20495;-73
2021/07/21 09:57:13;;;;;;;8.73;7.83;;;22.00;99.90;;;;;;4968160;28;20490;-71
2021/07/21 09:59:42;;;;;;;11.13;7.70;;;22.10;99.90;;;;;;4963548;28;20467;-73
2021/07/21 10:02:16;;;;;;;10.03;8.20;;;22.20;99.90;;;;;;4947746;28;20557;-72
2021/07/21 10:04:46;;;;;;;10.17;8.57;;;22.20;99.90;;;;;;4966179;28;20530;-73
2021/07/21 10:07:34;;;;;;;12.20;8.40;;;22.30;99.90;;;;;;4966691;28;20462;-72
2021/07/21 10:10:11;;;;;;;8.47;7.23;;;22.30;99.90;;;;;;4966810;28;20471;-72
2021/07/21 10:12:37;;;;;;;9.20;7.83;;;22.40;99.90;;;;;;4966181;28;20466;-72
2021/07/21 10:15:06;;;;;;;10.67;8.83;;;22.40;99.90;;;;;;4967200;28;21008;-74
2021/07/21 10:17:33;;;;;;;8.80;7.90;;;22.50;99.90;;;;;;4966886;28;20486;-73
2021/07/21 10:20:00;;;;;;;9.33;7.90;;;22.60;99.90;;;;;;4968486;28;20930;-73
2021/07/21 10:22:27;;;;;;;10.90;9.30;;;22.60;99.90;;;;;;4968027;28;20854;-72
2021/07/21 10:24:55;;;;;;;11.83;9.27;;;22.60;99.90;;;;;;4967521;28;20487;-74
2021/07/21 10:27:22;;;;;;;13.23;9.00;;;22.70;99.90;;;;;;4967767;28;20877;-74
2021/07/21 10:29:49;;;;;;;11.23;9.20;;;22.80;99.90;;;;;;4966673;28;20474;-73
2021/07/21 10:32:18;;;;;;;10.00;8.73;;;22.90;99.90;;;;;;4967966;28;20862;-74
2021/07/21 10:34:46;;;;;;;10.70;8.30;;;22.90;99.90;;;;;;4966972;28;20495;-73
2021/07/21 10:37:13;;;;;;;12.37;8.87;;;22.90;99.90;;;;;;4968039;28;20486;-73
2021/07/21 10:39:40;;;;;;;9.87;8.33;;;23.00;99.90;;;;;;4967162;28;20473;-74
2021/07/21 10:42:09;;;;;;;10.10;9.03;;;23.00;99.90;;;;;;4966267;28;20594;-73
2021/07/21 10:44:36;;;;;;;9.50;7.50;;;23.00;99.90;;;;;;4967244;28;20487;-73
2021/07/21 10:47:23;;;;;;;9.47;7.30;;;23.00;99.90;;;;;;4967308;28;20468;-72
2021/07/21 10:49:52;;;;;;;10.60;8.33;;;23.00;99.90;;;;;;4966391;28;20470;-72
2021/07/21 10:55:25;;;;;;;8.63;7.70;;;23.10;99.90;;;;;;4967616;28;20644;-73
2021/07/21 11:00:52;;;;;;;8.93;8.07;;;23.20;99.90;;;;;;5001338;28;21076;-73
2021/07/21 11:03:22;;;;;;;9.03;7.77;;;23.30;99.90;;;;;;5068502;28;20462;-73
2021/07/21 11:05:59;;;;;;;10.50;8.20;;;23.30;99.90;;;;;;5068188;28;20490;-73
2021/07/21 11:08:27;;;;;;;9.17;8.27;;;23.40;99.90;;;;;;5068617;28;20854;-72
2021/07/21 11:10:55;;;;;;;9.53;8.27;;;23.50;99.90;;;;;;5068149;28;20465;-73
2021/07/21 11:13:41;;;;;;;9.97;8.17;;;23.60;99.90;;;;;;5068354;28;20470;-73
2021/07/21 11:16:45;;;;;;;8.83;7.97;;;23.70;99.90;;;;;;5068630;28;20454;-73
2021/07/21 11:19:34;;;;;;;9.03;8.13;;;23.80;99.90;;;;;;5039709;28;20989;-73
2021/07/21 11:22:04;;;;;;;9.00;8.10;;;23.80;99.90;;;;;;4967011;28;20478;-73
2021/07/21 11:24:52;;;;;;;9.87;8.90;;;23.80;99.90;;;;;;4967239;28;21022;-73
2021/07/21 11:27:37;;;;;;;11.70;8.57;;;23.90;99.90;;;;;;4968147;28;20879;-73
2021/07/21 11:30:05;;;;;;;9.23;8.10;;;24.00;99.90;;;;;;4968353;28;20467;-73
2021/07/21 11:32:31;;;;;;;11.70;8.80;;;24.00;99.90;;;;;;4968582;28;20470;-72
2021/07/21 11:35:00;;;;;;;9.27;8.10;;;23.90;99.90;;;;;;4968635;28;20483;-73
2021/07/21 11:37:35;;;;;;;10.57;8.90;;;24.00;99.90;;;;;;4968791;28;20556;-73
2021/07/21 11:40:18;;;;;;;9.87;8.87;;;24.20;99.90;;;;;;4968277;28;20467;-73
2021/07/21 11:42:45;;;;;;;8.63;7.67;;;24.20;99.90;;;;;;4968683;28;20572;-73
2021/07/21 11:45:19;;;;;;;9.23;8.30;;;24.20;99.90;;;;;;5017830;28;20487;-73
2021/07/21 11:47:48;;;;;;;10.57;9.30;;;24.30;99.90;;;;;;4987840;28;20461;-73
2021/07/21 11:50:20;;;;;;;10.20;8.70;;;24.30;99.90;;;;;;4986895;28;20580;-73
2021/07/21 11:52:51;;;;;;;10.17;8.60;;;24.30;99.90;;;;;;4987918;28;20470;-73
2021/07/21 11:55:19;;;;;;;9.43;8.27;;;24.30;99.90;;;;;;4987712;28;20482;-73
2021/07/21 11:57:47;;;;;;;10.93;9.40;;;24.30;99.90;;;;;;4987670;28;20489;-73
2021/07/21 12:00:14;;;;;;;13.83;9.60;;;24.30;99.90;;;;;;4987194;28;20983;-73
2021/07/21 12:02:41;;;;;;;8.70;7.80;;;24.40;99.90;;;;;;4987907;28;20467;-73
2021/07/21 12:05:09;;;;;;;10.03;9.03;;;24.40;99.90;;;;;;4987473;28;21055;-74
2021/07/21 12:07:39;;;;;;;10.93;9.07;;;24.40;99.90;;;;;;4987926;28;20836;-73
2021/07/21 12:10:11;;;;;;;10.20;9.20;;;24.60;99.90;;;;;;4987136;28;20473;-73
2021/07/21 12:12:39;;;;;;;8.87;7.97;;;24.70;99.90;;;;;;5075910;23;21028;-71
2021/07/21 12:15:08;;;;;;;9.57;8.57;;;24.70;99.90;;;;;;5080202;28;20815;-71
2021/07/21 12:17:35;;;;;;;10.67;8.00;;;24.70;99.90;;;;;;5089885;28;20486;-71
2021/07/21 12:20:06;;;;;;;11.70;9.00;;;24.80;99.90;;;;;;5088958;28;20462;-71
2021/07/21 12:22:35;;;;;;;10.57;9.47;;;24.90;99.90;;;;;;5089820;28;20470;-69
2021/07/21 12:25:07;;;;;;;9.97;9.07;;;24.90;99.90;;;;;;5089106;28;20484;-69
2021/07/21 12:27:35;;;;;;;9.77;8.30;;;24.90;99.90;;;;;;5089589;28;20823;-71
2021/07/21 12:30:04;;;;;;;10.57;9.07;;;24.90;99.90;;;;;;5088619;28;20461;-71
2021/07/21 12:32:31;;;;;;;9.57;8.60;;;24.80;99.90;;;;;;5089532;28;20488;-71
2021/07/21 12:34:57;;;;;;;10.23;9.13;;;24.80;99.90;;;;;;5089033;28;20481;-71
2021/07/21 12:37:27;;;;;;;10.20;8.47;;;24.80;99.90;;;;;;5089417;28;20465;-69
2021/07/21 12:39:56;;;;;;;10.10;8.27;;;24.80;99.90;;;;;;5088804;28;20457;-69
2021/07/21 12:42:26;;;;;;;9.60;8.70;;;24.80;99.90;;;;;;5089320;28;20470;-69
2021/07/21 12:44:55;;;;;;;11.00;8.97;;;24.80;99.90;;;;;;5088594;28;20477;-68
2021/07/21 12:47:24;;;;;;;10.20;8.70;;;25.00;99.90;;;;;;5089208;28;20477;-69
2021/07/21 12:49:53;;;;;;;9.90;8.73;;;25.00;99.90;;;;;;5088523;28;20976;-69
2021/07/21 12:52:21;;;;;;;9.83;8.70;;;25.00;99.90;;;;;;5088987;28;20465;-69
2021/07/21 12:54:52;;;;;;;10.10;9.10;;;24.80;99.90;;;;;;5088748;28;20569;-69
2021/07/21 12:57:35;;;;;;;12.00;9.40;;;24.60;99.90;;;;;;5089544;28;20540;-69
2021/07/21 13:00:05;;;;;;;10.07;8.50;;;24.40;99.90;;;;;;5088429;28;20461;-68
2021/07/21 13:02:32;;;;;;;10.43;9.10;;;24.40;99.90;;;;;;5074715;28;20462;-69
2021/07/21 13:04:59;;;;;;;10.87;7.63;;;24.60;99.90;;;;;;5068476;28;20599;-69
2021/07/21 13:07:26;;;;;;;10.03;9.03;;;24.60;99.90;;;;;;5068400;28;20524;-69
2021/07/21 13:09:54;;;;;;;10.30;9.30;;;24.60;99.90;;;;;;5077039;28;20498;-69